createdAt,value
2022-10-26T00:01:21.949Z,57.90
2022-10-26T00:03:49.878Z,57.90
2022-10-26T00:06:20.390Z,57.90
2022-10-26T00:08:49.011Z,57.80
2022-10-26T00:11:16.979Z,57.90
2022-10-26T00:13:45.499Z,57.90
2022-10-26T00:16:16.196Z,57.90
2022-10-26T00:18:44.382Z,57.90
2022-10-26T00:21:12.582Z,58.50
2022-10-26T00:23:41.889Z,57.90
2022-10-26T00:26:10.477Z,57.90
2022-10-26T00:28:38.557Z,57.90
2022-10-26T00:31:08.569Z,57.90
2022-10-26T00:33:37.095Z,57.90
2022-10-26T00:36:05.204Z,57.90
2022-10-26T00:38:33.028Z,57.90
2022-10-26T00:41:02.161Z,57.90
2022-10-26T00:43:40.409Z,58.50
2022-10-26T00:46:13.004Z,57.90
2022-10-26T00:48:45.574Z,57.90
2022-10-26T00:51:19.868Z,57.90
2022-10-26T00:53:48.153Z,57.90
2022-10-26T00:56:18.346Z,57.90
2022-10-26T00:58:47.097Z,57.90
2022-10-26T01:01:15.080Z,57.90
2022-10-26T01:03:43.983Z,57.90
2022-10-26T01:06:13.456Z,57.90
2022-10-26T01:08:43.813Z,57.90
2022-10-26T01:11:13.012Z,57.90
2022-10-26T01:13:44.681Z,57.90
2022-10-26T01:16:42.785Z,57.90
2022-10-26T01:19:57.356Z,57.90
2022-10-26T01:22:27.945Z,57.90
2022-10-26T01:25:08.323Z,57.90
2022-10-26T01:27:37.576Z,57.90
2022-10-26T01:30:36.038Z,57.90
2022-10-26T01:33:16.654Z,57.90
2022-10-26T01:35:53.159Z,57.90
2022-10-26T01:38:27.615Z,57.90
2022-10-26T01:41:02.807Z,57.90
2022-10-26T01:43:34.911Z,57.90
2022-10-26T01:46:07.240Z,57.90
2022-10-26T01:48:37.359Z,57.90
2022-10-26T01:51:06.484Z,57.90
2022-10-26T01:53:34.335Z,57.90
2022-10-26T01:56:03.286Z,57.90
2022-10-26T01:58:53.728Z,57.90
2022-10-26T02:01:45.876Z,57.90
2022-10-26T02:07:03.878Z,57.90
2022-10-26T02:09:39.945Z,57.90
2022-10-26T02:12:15.133Z,57.90
2022-10-26T02:14:50.357Z,57.90
2022-10-26T02:17:28.196Z,57.90
2022-10-26T02:20:01.214Z,57.90
2022-10-26T02:22:34.126Z,57.90
2022-10-26T02:25:08.214Z,57.90
2022-10-26T02:27:42.705Z,57.90
2022-10-26T02:30:12.345Z,57.90
2022-10-26T02:32:46.139Z,57.80
2022-10-26T02:35:15.493Z,57.90
2022-10-26T02:37:45.438Z,57.90
2022-10-26T02:40:17.862Z,58.00
2022-10-26T02:42:47.791Z,57.90
2022-10-26T02:45:20.039Z,57.90
2022-10-26T02:47:49.605Z,57.90
2022-10-26T02:50:18.490Z,57.90
2022-10-26T02:52:53.303Z,57.90
2022-10-26T02:55:25.998Z,57.90
2022-10-26T02:57:58.598Z,57.90
2022-10-26T03:00:26.510Z,57.90
2022-10-26T03:02:58.340Z,57.90
2022-10-26T03:05:28.817Z,57.90
2022-10-26T03:07:57.284Z,57.90
2022-10-26T03:10:25.772Z,57.90
2022-10-26T03:12:53.576Z,57.90
2022-10-26T03:15:21.541Z,57.90
2022-10-26T03:17:49.523Z,57.90
2022-10-26T03:20:19.136Z,57.90
2022-10-26T03:22:48.322Z,57.90
2022-10-26T03:25:16.786Z,57.90
2022-10-26T03:27:44.997Z,57.80
2022-10-26T03:30:13.015Z,57.80
2022-10-26T03:32:40.824Z,57.80
2022-10-26T03:35:09.453Z,57.80
2022-10-26T03:37:38.586Z,58.60
2022-10-26T03:40:07.396Z,57.90
2022-10-26T03:42:37.228Z,57.80
2022-10-26T03:45:05.866Z,57.80
2022-10-26T03:47:33.747Z,57.80
2022-10-26T03:50:01.626Z,57.80
2022-10-26T03:52:29.518Z,57.80
2022-10-26T03:54:58.685Z,57.90
2022-10-26T03:57:26.524Z,57.80
2022-10-26T03:59:54.328Z,58.50
2022-10-26T04:02:22.125Z,57.80
2022-10-26T04:04:49.944Z,57.80
2022-10-26T04:07:18.219Z,57.90
2022-10-26T04:09:45.990Z,57.90
2022-10-26T04:12:15.160Z,57.80
2022-10-26T04:14:42.974Z,57.90
2022-10-26T04:17:10.792Z,57.90
2022-10-26T04:19:38.665Z,57.80
2022-10-26T04:22:06.612Z,58.00
2022-10-26T04:24:34.390Z,57.80
2022-10-26T04:27:02.233Z,57.90
2022-10-26T04:29:31.400Z,57.80
2022-10-26T04:31:59.217Z,57.90
2022-10-26T04:34:27.051Z,57.90
2022-10-26T04:36:55.771Z,57.90
2022-10-26T04:39:23.621Z,57.90
2022-10-26T04:41:51.448Z,57.80
2022-10-26T04:44:19.259Z,57.90
2022-10-26T04:46:48.467Z,57.90
2022-10-26T04:49:16.263Z,57.90
2022-10-26T04:51:44.119Z,57.90
2022-10-26T04:54:12.217Z,57.90
2022-10-26T04:56:40.099Z,57.80
2022-10-26T04:59:08.033Z,57.90
2022-10-26T05:01:35.968Z,57.90
2022-10-26T05:04:05.456Z,57.90
2022-10-26T05:06:33.327Z,57.90
2022-10-26T05:09:01.115Z,57.90
2022-10-26T05:11:28.922Z,57.90
2022-10-26T05:13:56.728Z,57.90
2022-10-26T05:16:24.560Z,57.90
2022-10-26T05:18:52.361Z,57.90
2022-10-26T05:21:21.523Z,57.90
2022-10-26T05:23:52.479Z,57.90
2022-10-26T05:26:20.725Z,57.90
2022-10-26T05:28:48.565Z,57.90
2022-10-26T05:31:16.515Z,57.90
2022-10-26T05:33:44.389Z,57.90
2022-10-26T05:36:12.173Z,57.90
2022-10-26T05:38:41.464Z,57.90
2022-10-26T05:41:09.274Z,57.90
2022-10-26T05:43:37.093Z,57.90
2022-10-26T05:46:05.070Z,57.90
2022-10-26T05:48:32.934Z,57.90
2022-10-26T05:51:01.418Z,57.90
2022-10-26T05:53:29.347Z,57.90
2022-10-26T05:55:59.500Z,57.90
2022-10-26T05:58:28.032Z,57.90
2022-10-26T06:01:11.386Z,57.90
2022-10-26T06:03:53.044Z,57.90
2022-10-26T06:06:23.137Z,57.90
2022-10-26T06:08:51.438Z,57.90
2022-10-26T06:11:21.414Z,57.90
2022-10-26T06:13:49.715Z,57.90
2022-10-26T06:16:29.821Z,57.90
2022-10-26T06:19:07.715Z,58.00
2022-10-26T06:21:49.115Z,57.90
2022-10-26T06:24:25.660Z,58.00
2022-10-26T06:27:04.835Z,58.00
2022-10-26T06:29:42.933Z,57.90
2022-10-26T06:32:11.972Z,58.00
2022-10-26T06:34:46.287Z,57.90
2022-10-26T06:37:14.889Z,57.90
2022-10-26T06:39:48.935Z,58.00
2022-10-26T06:42:21.373Z,57.90
2022-10-26T06:44:49.941Z,57.90
2022-10-26T06:47:24.287Z,57.80
2022-10-26T06:50:00.891Z,57.90
2022-10-26T06:52:34.953Z,57.90
2022-10-26T06:55:03.309Z,57.90
2022-10-26T06:57:36.080Z,57.90
2022-10-26T07:00:07.171Z,57.90
2022-10-26T07:02:35.111Z,57.90
2022-10-26T07:05:03.022Z,57.90
2022-10-26T07:07:32.345Z,57.90
2022-10-26T07:10:00.182Z,57.90
2022-10-26T07:12:32.129Z,57.90
2022-10-26T07:15:02.531Z,57.90
2022-10-26T07:17:30.550Z,57.90
2022-10-26T07:19:58.685Z,57.90
2022-10-26T07:22:26.686Z,57.90
2022-10-26T07:24:56.965Z,57.90
2022-10-26T07:27:27.078Z,57.90
2022-10-26T07:29:54.906Z,57.90
2022-10-26T07:32:24.328Z,57.90
2022-10-26T07:34:52.149Z,57.90
2022-10-26T07:37:19.959Z,57.90
2022-10-26T07:39:47.788Z,57.90
2022-10-26T07:42:16.515Z,57.90
2022-10-26T07:44:44.369Z,57.90
2022-10-26T07:47:12.211Z,57.90
2022-10-26T07:49:41.459Z,57.90
2022-10-26T07:52:10.331Z,57.90
2022-10-26T07:54:38.173Z,57.90
2022-10-26T07:59:38.897Z,57.90
2022-10-26T08:02:07.019Z,57.90
2022-10-26T08:04:34.886Z,57.90
2022-10-26T08:07:04.076Z,57.90
2022-10-26T08:09:31.890Z,57.90
2022-10-26T08:11:59.753Z,57.90
2022-10-26T08:14:27.565Z,57.90
2022-10-26T08:16:55.360Z,57.90
2022-10-26T08:19:23.213Z,57.90
2022-10-26T08:21:51.025Z,57.90
2022-10-26T08:24:20.234Z,57.90
2022-10-26T08:26:48.036Z,57.90
2022-10-26T08:29:15.857Z,57.90
2022-10-26T08:31:43.741Z,57.90
2022-10-26T08:34:11.570Z,58.00
2022-10-26T08:36:39.380Z,57.90
2022-10-26T08:39:07.386Z,57.90
2022-10-26T08:41:39.329Z,57.90
2022-10-26T08:44:20.861Z,57.90
2022-10-26T08:46:53.357Z,57.90
2022-10-26T08:49:25.952Z,58.00
2022-10-26T08:51:58.928Z,58.00
2022-10-26T08:54:36.177Z,58.00
2022-10-26T08:57:15.379Z,58.00
2022-10-26T08:59:49.813Z,58.00
2022-10-26T09:02:18.953Z,57.90
2022-10-26T09:04:47.193Z,58.00
2022-10-26T09:07:26.596Z,57.90
2022-10-26T09:10:02.834Z,58.00
2022-10-26T09:12:43.770Z,58.00
2022-10-26T09:15:20.974Z,58.00
2022-10-26T09:17:58.087Z,58.00
2022-10-26T09:20:44.326Z,58.00
2022-10-26T09:23:25.241Z,58.00
2022-10-26T09:26:00.408Z,58.00
2022-10-26T09:28:32.938Z,58.00
2022-10-26T09:31:02.725Z,58.00
2022-10-26T09:33:32.183Z,58.00
2022-10-26T09:36:03.154Z,58.00
2022-10-26T09:38:33.615Z,58.00
2022-10-26T09:41:07.431Z,58.10
2022-10-26T09:43:41.198Z,58.00
2022-10-26T09:46:16.731Z,58.00
2022-10-26T09:48:50.380Z,58.00
2022-10-26T09:51:18.934Z,58.00
2022-10-26T09:53:47.213Z,58.00
2022-10-26T09:56:16.137Z,58.00
2022-10-26T09:58:51.114Z,58.00
2022-10-26T10:01:35.344Z,58.00
2022-10-26T10:04:20.110Z,58.00
2022-10-26T10:06:49.740Z,58.10
2022-10-26T10:09:19.159Z,58.00
2022-10-26T10:11:54.929Z,58.10
2022-10-26T10:14:26.478Z,58.00
2022-10-26T10:16:56.719Z,58.00
2022-10-26T10:19:27.106Z,58.00
2022-10-26T10:21:58.053Z,58.00
2022-10-26T10:24:29.075Z,58.00
2022-10-26T10:27:03.267Z,58.00
2022-10-26T10:29:34.128Z,58.00
2022-10-26T10:32:04.225Z,58.00
2022-10-26T10:34:33.217Z,58.00
2022-10-26T10:37:01.739Z,58.00
2022-10-26T10:39:40.402Z,58.10
2022-10-26T10:42:18.461Z,58.00
2022-10-26T10:44:51.458Z,58.00
2022-10-26T10:47:28.349Z,58.00
2022-10-26T10:49:59.453Z,58.00
2022-10-26T10:52:30.097Z,58.00
2022-10-26T10:55:17.290Z,58.00
2022-10-26T10:58:06.115Z,58.10
2022-10-26T11:00:37.662Z,58.10
2022-10-26T11:03:32.198Z,58.00
2022-10-26T11:06:12.227Z,58.00
2022-10-26T11:08:45.517Z,58.10
2022-10-26T11:11:16.558Z,58.10
2022-10-26T11:13:51.449Z,58.00
2022-10-26T11:16:26.546Z,58.10
2022-10-26T11:19:00.236Z,58.10
2022-10-26T11:21:30.253Z,58.10
2022-10-26T11:24:15.733Z,58.10
2022-10-26T11:26:49.710Z,58.00
2022-10-26T11:29:24.739Z,58.10
2022-10-26T11:32:01.792Z,58.10
2022-10-26T11:34:36.730Z,58.10
2022-10-26T11:37:12.231Z,58.10
2022-10-26T11:39:45.982Z,58.10
2022-10-26T11:42:25.404Z,58.10
2022-10-26T11:44:59.030Z,58.10
2022-10-26T11:47:36.596Z,58.10
2022-10-26T11:50:17.199Z,58.10
2022-10-26T11:52:50.199Z,58.10
2022-10-26T11:55:19.507Z,58.10
2022-10-26T11:57:47.876Z,58.10
2022-10-26T12:00:18.942Z,58.10
2022-10-26T12:02:51.951Z,58.10
2022-10-26T12:05:23.913Z,58.10
2022-10-26T12:07:55.030Z,58.10
2022-10-26T12:10:29.187Z,58.10
2022-10-26T12:13:06.840Z,58.10
2022-10-26T12:18:55.183Z,58.70
2022-10-26T12:21:27.432Z,58.10
2022-10-26T12:23:57.673Z,58.10
2022-10-26T12:26:53.417Z,58.10
2022-10-26T12:29:37.236Z,58.10
2022-10-26T12:32:29.566Z,58.10
2022-10-26T12:35:25.926Z,58.10
2022-10-26T12:37:53.979Z,58.10
2022-10-26T12:40:43.442Z,58.10
2022-10-26T12:43:37.736Z,58.10
2022-10-26T12:46:42.338Z,58.10
2022-10-26T12:49:49.069Z,58.20
2022-10-26T12:52:27.286Z,58.20
2022-10-26T12:55:39.397Z,58.10
2022-10-26T12:58:28.863Z,58.20
2022-10-26T13:01:22.504Z,58.10
2022-10-26T13:03:59.790Z,58.10
2022-10-26T13:06:46.007Z,58.20
2022-10-26T13:09:21.520Z,58.20
2022-10-26T13:11:53.564Z,58.20
2022-10-26T13:14:24.320Z,58.10
2022-10-26T13:16:52.342Z,58.20
2022-10-26T13:19:28.254Z,58.20
2022-10-26T13:22:00.053Z,58.20
2022-10-26T13:24:32.116Z,58.20
2022-10-26T13:27:26.708Z,58.10
2022-10-26T13:30:35.819Z,58.20
2022-10-26T13:33:04.703Z,58.20
2022-10-26T13:35:33.298Z,58.20
2022-10-26T13:38:08.080Z,58.20
2022-10-26T13:40:39.081Z,58.20
2022-10-26T13:43:14.473Z,58.20
2022-10-26T13:45:50.363Z,58.20
2022-10-26T13:48:21.357Z,58.20
2022-10-26T13:50:51.323Z,58.20
2022-10-26T13:53:24.359Z,58.20
2022-10-26T13:55:56.088Z,58.20
2022-10-26T13:58:29.674Z,58.20
2022-10-26T14:01:13.451Z,58.20
2022-10-26T14:03:42.449Z,58.20
2022-10-26T14:06:17.836Z,58.20
2022-10-26T14:08:49.311Z,58.10
2022-10-26T14:11:21.087Z,58.20
2022-10-26T14:13:51.079Z,58.20
2022-10-26T14:16:20.366Z,58.20
2022-10-26T14:18:49.428Z,58.20
2022-10-26T14:21:20.191Z,58.20
2022-10-26T14:23:50.172Z,58.20
2022-10-26T14:26:24.980Z,58.20
2022-10-26T14:28:54.751Z,58.20
2022-10-26T14:31:25.729Z,58.10
2022-10-26T14:33:54.491Z,58.10
2022-10-26T14:36:27.942Z,58.20
2022-10-26T14:39:00.978Z,58.20
2022-10-26T14:41:30.998Z,58.20
2022-10-26T14:44:00.825Z,58.10
2022-10-26T14:46:34.476Z,58.10
2022-10-26T14:49:03.696Z,58.10
2022-10-26T14:51:35.613Z,58.20
2022-10-26T14:54:05.304Z,58.10
2022-10-26T14:56:41.715Z,58.10
2022-10-26T14:59:19.705Z,58.20
2022-10-26T15:01:53.391Z,58.20
2022-10-26T15:04:33.729Z,58.20
2022-10-26T15:07:17.488Z,58.20
2022-10-26T15:09:46.394Z,58.20
2022-10-26T15:12:23.512Z,58.20
2022-10-26T15:14:52.134Z,58.10
2022-10-26T15:17:24.228Z,58.20
2022-10-26T15:19:53.616Z,58.20
2022-10-26T15:22:29.520Z,58.20
2022-10-26T15:25:01.934Z,58.20
2022-10-26T15:27:31.466Z,58.10
2022-10-26T15:30:20.057Z,58.20
2022-10-26T15:32:48.691Z,58.20
2022-10-26T15:35:28.110Z,58.10
2022-10-26T15:37:57.736Z,58.20
2022-10-26T15:40:28.970Z,58.20
2022-10-26T15:43:01.318Z,58.20
2022-10-26T15:45:31.725Z,58.20
2022-10-26T15:48:01.444Z,58.20
2022-10-26T15:50:30.162Z,58.20
2022-10-26T15:53:01.853Z,58.10
2022-10-26T15:55:30.849Z,58.10
2022-10-26T15:58:00.070Z,58.20
2022-10-26T16:00:27.946Z,58.20
2022-10-26T16:02:55.797Z,58.10
2022-10-26T16:05:23.628Z,58.20
2022-10-26T16:07:51.824Z,58.10
2022-10-26T16:10:24.730Z,58.10
2022-10-26T16:12:53.053Z,58.20
2022-10-26T16:15:24.575Z,58.20
2022-10-26T16:17:53.483Z,58.10
2022-10-26T16:20:23.674Z,58.10
2022-10-26T16:22:53.397Z,58.10
2022-10-26T16:25:24.035Z,58.10
2022-10-26T16:27:52.535Z,58.10
2022-10-26T16:30:24.848Z,58.10
2022-10-26T16:32:56.008Z,58.20
2022-10-26T16:35:23.852Z,58.10
2022-10-26T16:37:51.698Z,58.10
2022-10-26T16:40:19.733Z,58.10
2022-10-26T16:42:47.674Z,58.10
2022-10-26T16:45:17.482Z,58.80
2022-10-26T16:47:46.662Z,58.10
2022-10-26T16:50:14.831Z,58.10
2022-10-26T16:52:43.101Z,58.10
2022-10-26T16:55:11.147Z,58.10
2022-10-26T16:57:39.257Z,58.10
2022-10-26T17:00:08.446Z,58.10
2022-10-26T17:02:36.477Z,58.10
2022-10-26T17:05:07.423Z,58.10
2022-10-26T17:07:35.936Z,58.10
2022-10-26T17:10:03.866Z,58.10
2022-10-26T17:12:31.902Z,58.10
2022-10-26T17:15:00.600Z,58.10
2022-10-26T17:17:28.556Z,58.10
2022-10-26T17:19:56.586Z,58.10
2022-10-26T17:22:25.774Z,58.10
2022-10-26T17:24:53.632Z,58.10
2022-10-26T17:27:22.970Z,58.10
2022-10-26T17:29:50.835Z,58.10
2022-10-26T17:32:18.658Z,58.10
2022-10-26T17:34:46.463Z,58.10
2022-10-26T17:37:14.280Z,58.10
2022-10-26T17:39:43.463Z,58.10
2022-10-26T17:42:11.291Z,58.10
2022-10-26T17:44:39.431Z,58.10
2022-10-26T17:47:07.380Z,58.10
2022-10-26T17:49:36.420Z,58.10
2022-10-26T17:52:05.869Z,58.10
2022-10-26T17:54:33.856Z,58.10
2022-10-26T17:57:03.236Z,58.10
2022-10-26T17:59:31.190Z,58.10
2022-10-26T18:02:00.261Z,58.10
2022-10-26T18:04:28.270Z,58.10
2022-10-26T18:06:56.153Z,58.20
2022-10-26T18:09:24.031Z,58.10
2022-10-26T18:11:54.903Z,58.10
2022-10-26T18:14:25.168Z,58.20
2022-10-26T18:16:53.047Z,58.20
2022-10-26T18:19:20.958Z,58.10
2022-10-26T18:21:48.788Z,58.10
2022-10-26T18:24:16.661Z,58.20
2022-10-26T18:26:44.479Z,58.20
2022-10-26T18:29:13.924Z,58.20
2022-10-26T18:31:45.883Z,58.10
2022-10-26T18:34:13.777Z,58.10
2022-10-26T18:36:41.666Z,58.20
2022-10-26T18:39:09.524Z,58.20
2022-10-26T18:41:37.348Z,58.20
2022-10-26T18:44:05.581Z,58.20
2022-10-26T18:46:39.590Z,58.20
2022-10-26T18:49:10.338Z,58.20
2022-10-26T18:51:38.242Z,58.20
2022-10-26T18:54:06.241Z,58.20
2022-10-26T18:56:34.082Z,58.20
2022-10-26T18:59:02.288Z,58.20
2022-10-26T19:01:32.216Z,58.20
2022-10-26T19:04:02.284Z,58.20
2022-10-26T19:06:33.973Z,58.20
2022-10-26T19:09:01.912Z,58.10
2022-10-26T19:11:31.524Z,58.20
2022-10-26T19:13:59.788Z,58.20
2022-10-26T19:16:45.200Z,58.20
2022-10-26T19:19:14.778Z,58.20
2022-10-26T19:21:44.053Z,58.20
2022-10-26T19:24:16.040Z,58.20
2022-10-26T19:26:44.696Z,58.20
2022-10-26T19:29:15.170Z,58.20
2022-10-26T19:31:44.417Z,58.20
2022-10-26T19:34:13.904Z,58.20
2022-10-26T19:36:45.115Z,58.20
2022-10-26T19:39:14.097Z,58.20
2022-10-26T19:41:42.206Z,58.20
2022-10-26T19:44:11.729Z,58.20
2022-10-26T19:46:40.066Z,58.80
2022-10-26T19:49:08.079Z,58.80
2022-10-26T19:51:36.250Z,58.10
2022-10-26T19:54:07.177Z,58.20
2022-10-26T19:56:37.304Z,58.20
2022-10-26T19:59:06.071Z,58.20
2022-10-26T20:01:34.214Z,58.20
2022-10-26T20:04:02.830Z,58.30
2022-10-26T20:06:31.354Z,58.20
2022-10-26T20:08:59.846Z,58.20
2022-10-26T20:11:32.015Z,58.20
2022-10-26T20:13:59.956Z,58.10
2022-10-26T20:16:27.843Z,58.10
2022-10-26T20:18:55.752Z,58.10
2022-10-26T20:21:23.636Z,58.20
2022-10-26T20:23:51.520Z,58.10
2022-10-26T20:26:20.571Z,58.10
2022-10-26T20:28:51.840Z,58.10
2022-10-26T20:31:19.886Z,58.20
2022-10-26T20:33:50.840Z,58.20
2022-10-26T20:36:18.729Z,58.10
2022-10-26T20:38:47.121Z,58.10
2022-10-26T20:41:15.467Z,58.10
2022-10-26T20:43:43.893Z,58.20
2022-10-26T20:46:22.478Z,58.10
2022-10-26T20:48:51.503Z,58.20
2022-10-26T20:51:25.276Z,58.50
2022-10-26T20:54:02.582Z,58.10
2022-10-26T20:56:30.865Z,58.20
2022-10-26T20:59:01.676Z,58.10
2022-10-26T21:01:32.657Z,58.10
2022-10-26T21:04:02.094Z,58.10
2022-10-26T21:06:32.184Z,58.10
2022-10-26T21:09:00.083Z,58.10
2022-10-26T21:11:27.959Z,58.10
2022-10-26T21:13:56.128Z,58.10
2022-10-26T21:16:23.956Z,58.20
2022-10-26T21:18:53.234Z,58.10
2022-10-26T21:21:21.278Z,58.20
2022-10-26T21:23:49.549Z,58.10
2022-10-26T21:26:17.369Z,58.10
2022-10-26T21:28:46.677Z,58.20
2022-10-26T21:31:16.821Z,58.10
2022-10-26T21:33:46.435Z,58.10
2022-10-26T21:36:16.557Z,58.20
2022-10-26T21:38:45.650Z,58.20
2022-10-26T21:41:15.355Z,58.20
2022-10-26T21:43:45.973Z,58.10
2022-10-26T21:46:14.905Z,58.10
2022-10-26T21:48:43.007Z,58.20
2022-10-26T21:51:13.640Z,58.20
2022-10-26T21:53:43.655Z,58.20
2022-10-26T21:56:16.897Z,58.20
2022-10-26T21:58:45.230Z,58.20
2022-10-26T22:01:15.185Z,58.20
2022-10-26T22:03:44.271Z,58.20
2022-10-26T22:06:13.762Z,58.20
2022-10-26T22:08:43.471Z,58.20
2022-10-26T22:11:15.567Z,58.20
2022-10-26T22:13:44.468Z,58.10
2022-10-26T22:16:14.441Z,58.20
2022-10-26T22:18:44.560Z,58.20
2022-10-26T22:21:13.090Z,58.20
2022-10-26T22:23:43.652Z,58.20
2022-10-26T22:26:13.565Z,58.20
2022-10-26T22:28:43.024Z,58.20
2022-10-26T22:31:12.678Z,58.20
2022-10-26T22:33:40.904Z,58.20
2022-10-26T22:36:11.010Z,58.10
2022-10-26T22:38:39.178Z,58.20
2022-10-26T22:41:09.605Z,58.20
2022-10-26T22:43:37.772Z,58.20
2022-10-26T22:46:08.000Z,58.20
2022-10-26T22:48:36.875Z,58.80
2022-10-26T22:51:08.445Z,58.30
2022-10-26T22:53:36.515Z,58.10
2022-10-26T22:56:05.880Z,58.20
2022-10-26T22:58:35.199Z,58.10
2022-10-26T23:01:04.437Z,58.20
2022-10-26T23:03:32.482Z,58.10
2022-10-26T23:06:00.530Z,58.20
2022-10-26T23:08:28.812Z,58.20
2022-10-26T23:11:00.832Z,58.10
2022-10-26T23:13:29.444Z,58.10
2022-10-26T23:16:05.513Z,58.20
2022-10-26T23:18:33.680Z,58.20
2022-10-26T23:21:02.205Z,58.00
2022-10-26T23:23:30.063Z,58.10
2022-10-26T23:26:01.274Z,58.10
2022-10-26T23:28:29.391Z,58.10
2022-10-26T23:30:58.595Z,58.10
2022-10-26T23:33:26.506Z,58.10
2022-10-26T23:35:57.265Z,58.10
2022-10-26T23:38:25.306Z,58.10
2022-10-26T23:40:54.301Z,58.20
2022-10-26T23:43:22.618Z,58.10
2022-10-26T23:45:51.031Z,58.20
2022-10-26T23:48:20.883Z,58.10
2022-10-26T23:50:50.037Z,58.20
2022-10-26T23:53:19.586Z,58.10
2022-10-26T23:55:47.966Z,58.10
2022-10-26T23:58:17.663Z,58.10
